createdAt,value
2023-07-18T00:02:09.138Z,102032.66
2023-07-18T00:04:37.428Z,102031.19
2023-07-18T00:07:05.493Z,102039.22
2023-07-18T00:09:32.878Z,102031.38
2023-07-18T00:12:00.662Z,102036.91
2023-07-18T00:14:30.844Z,102033.41
2023-07-18T00:16:59.389Z,102023.91
2023-07-18T00:19:26.061Z,102020.56
2023-07-18T00:21:54.467Z,102026.31
2023-07-18T00:24:21.238Z,102024.03
2023-07-18T00:26:47.942Z,102025.03
2023-07-18T00:29:14.705Z,102020.50
2023-07-18T00:31:42.340Z,102027.09
2023-07-18T00:34:09.124Z,102023.56
2023-07-18T00:36:35.814Z,102023.78
2023-07-18T00:39:04.806Z,102026.66
2023-07-18T00:41:31.710Z,102009.91
2023-07-18T00:43:58.484Z,102014.63
2023-07-18T00:46:25.728Z,102021.22
2023-07-18T00:48:52.885Z,102017.25
2023-07-18T00:51:20.291Z,102017.66
2023-07-18T00:53:47.332Z,102018.66
2023-07-18T00:56:15.437Z,102023.38
2023-07-18T00:58:42.324Z,102013.88
2023-07-18T01:01:09.274Z,102021.28
2023-07-18T01:03:38.895Z,102021.81
2023-07-18T01:06:06.931Z,102023.41
2023-07-18T01:08:33.977Z,102021.13
2023-07-18T01:11:00.855Z,102018.81
2023-07-18T01:13:28.889Z,102032.41
2023-07-18T01:15:55.689Z,102021.91
2023-07-18T01:18:22.395Z,102022.09
2023-07-18T01:20:50.159Z,102031.31
2023-07-18T01:23:18.362Z,102027.16
2023-07-18T01:25:45.316Z,102024.88
2023-07-18T01:28:12.226Z,102016.34
2023-07-18T01:30:39.273Z,102018.22
2023-07-18T01:33:06.183Z,102006.88
2023-07-18T01:35:33.463Z,102006.19
2023-07-18T01:38:01.855Z,102014.41
2023-07-18T01:40:29.992Z,102017.66
2023-07-18T01:42:58.667Z,102013.50
2023-07-18T01:45:29.057Z,102014.72
2023-07-18T01:47:57.683Z,101995.13
2023-07-18T01:50:25.007Z,102002.50
2023-07-18T01:52:51.861Z,102000.19
2023-07-18T01:55:18.640Z,102004.28
2023-07-18T01:57:48.647Z,101993.94
2023-07-18T02:00:23.208Z,101991.63
2023-07-18T02:02:52.613Z,101986.47
2023-07-18T02:05:22.218Z,101983.97
2023-07-18T02:07:49.332Z,101993.00
2023-07-18T02:10:17.560Z,101993.22
2023-07-18T02:12:46.829Z,101988.88
2023-07-18T02:15:16.495Z,101988.03
2023-07-18T02:17:44.356Z,101989.22
2023-07-18T02:20:13.209Z,101986.72
2023-07-18T02:22:41.798Z,101985.91
2023-07-18T02:25:10.038Z,101981.59
2023-07-18T02:27:40.154Z,101990.63
2023-07-18T02:30:10.839Z,101979.09
2023-07-18T02:32:37.959Z,101977.44
2023-07-18T02:35:05.401Z,101977.44
2023-07-18T02:37:32.215Z,101977.78
2023-07-18T02:39:58.904Z,101971.81
2023-07-18T02:42:25.770Z,101979.19
2023-07-18T02:44:52.629Z,101978.19
2023-07-18T02:47:20.896Z,101980.19
2023-07-18T02:49:47.648Z,101979.53
2023-07-18T02:52:14.322Z,101977.06
2023-07-18T02:54:41.428Z,101977.88
2023-07-18T02:57:08.252Z,101974.56
2023-07-18T02:59:35.013Z,101970.22
2023-07-18T03:02:02.319Z,101972.91
2023-07-18T03:04:32.020Z,101966.91
2023-07-18T03:07:01.473Z,101961.94
2023-07-18T03:09:28.521Z,101958.44
2023-07-18T03:11:55.454Z,101959.63
2023-07-18T03:14:22.757Z,101965.16
2023-07-18T03:16:50.027Z,101971.50
2023-07-18T03:19:16.831Z,101976.88
2023-07-18T03:21:45.876Z,101970.50
2023-07-18T03:24:12.856Z,101970.69
2023-07-18T03:26:43.688Z,101973.34
2023-07-18T03:29:10.786Z,101976.41
2023-07-18T03:31:37.574Z,101982.97
2023-07-18T03:34:06.315Z,101982.50
2023-07-18T03:36:33.433Z,101980.00
2023-07-18T03:39:01.761Z,101983.03
2023-07-18T03:41:28.653Z,101976.84
2023-07-18T03:43:56.148Z,101987.38
2023-07-18T03:46:23.071Z,101990.25
2023-07-18T03:48:49.966Z,101990.44
2023-07-18T03:51:17.635Z,101989.63
2023-07-18T03:53:45.988Z,101990.44
2023-07-18T03:56:14.789Z,101996.97
2023-07-18T03:58:41.790Z,101996.16
2023-07-18T04:01:09.461Z,101977.81
2023-07-18T04:03:36.245Z,101978.59
2023-07-18T04:06:03.400Z,101976.97
2023-07-18T04:08:33.897Z,101968.28
2023-07-18T04:11:01.431Z,101968.28
2023-07-18T04:13:29.578Z,101968.28
2023-07-18T04:15:57.076Z,101964.78
2023-07-18T04:18:23.996Z,101967.44
2023-07-18T04:20:59.842Z,101966.78
2023-07-18T04:23:26.598Z,101963.28
2023-07-18T04:25:58.451Z,101956.25
2023-07-18T04:28:26.659Z,101957.94
2023-07-18T04:30:55.201Z,101955.91
2023-07-18T04:33:22.229Z,101962.09
2023-07-18T04:35:49.115Z,101957.56
2023-07-18T04:38:16.073Z,101961.25
2023-07-18T04:40:43.117Z,101957.41
2023-07-18T04:43:10.451Z,101960.69
2023-07-18T04:45:42.459Z,101958.84
2023-07-18T04:48:11.674Z,101953.34
2023-07-18T04:50:38.652Z,101951.47
2023-07-18T04:53:06.954Z,101947.81
2023-07-18T04:55:35.712Z,101955.66
2023-07-18T04:58:03.183Z,101957.09
2023-07-18T05:00:30.298Z,101955.75
2023-07-18T05:02:57.903Z,101962.75
2023-07-18T05:05:26.925Z,101966.72
2023-07-18T05:07:54.103Z,101967.19
2023-07-18T05:10:21.867Z,101966.63
2023-07-18T05:12:48.617Z,101960.09
2023-07-18T05:15:15.528Z,101963.88
2023-07-18T05:17:42.387Z,101958.94
2023-07-18T05:20:13.039Z,101961.09
2023-07-18T05:22:43.066Z,101962.38
2023-07-18T05:25:11.681Z,101951.28
2023-07-18T05:27:40.147Z,101957.94
2023-07-18T05:30:11.689Z,101950.53
2023-07-18T05:32:40.251Z,101949.78
2023-07-18T05:35:08.173Z,101945.69
2023-07-18T05:37:35.673Z,101952.38
2023-07-18T05:40:04.804Z,101951.78
2023-07-18T05:42:32.064Z,101949.75
2023-07-18T05:44:59.186Z,101953.88
2023-07-18T05:47:26.069Z,101944.47
2023-07-18T05:49:52.804Z,101951.31
2023-07-18T05:52:19.615Z,101947.41
2023-07-18T05:54:46.480Z,101944.41
2023-07-18T05:57:17.051Z,101946.69
2023-07-18T05:59:43.829Z,101952.31
2023-07-18T06:02:10.593Z,101952.94
2023-07-18T06:04:38.077Z,101952.38
2023-07-18T06:07:05.551Z,101953.84
2023-07-18T06:09:32.634Z,101948.09
2023-07-18T06:12:00.048Z,101950.19
2023-07-18T06:14:29.334Z,101947.16
2023-07-18T06:16:56.126Z,101947.59
2023-07-18T06:19:23.061Z,101946.38
2023-07-18T06:21:49.755Z,101946.84
2023-07-18T06:24:19.314Z,101949.78
2023-07-18T06:26:51.429Z,101946.69
2023-07-18T06:29:18.636Z,101951.69
2023-07-18T06:31:47.284Z,101955.84
2023-07-18T06:34:14.250Z,101957.94
2023-07-18T06:36:40.983Z,101958.16
2023-07-18T06:39:08.015Z,101958.63
2023-07-18T06:41:35.209Z,101958.03
2023-07-18T06:44:02.203Z,101957.66
2023-07-18T06:46:29.185Z,101958.72
2023-07-18T06:48:57.396Z,101956.28
2023-07-18T06:51:24.522Z,101960.03
2023-07-18T06:53:53.355Z,101954.28
2023-07-18T06:56:20.499Z,101962.56
2023-07-18T06:58:47.493Z,101959.31
2023-07-18T07:01:15.779Z,101947.97
2023-07-18T07:03:42.706Z,101949.28
2023-07-18T07:06:12.112Z,101947.88
2023-07-18T07:08:38.864Z,101948.28
2023-07-18T07:11:07.219Z,101943.16
2023-07-18T07:13:35.858Z,101942.56
2023-07-18T07:16:02.642Z,101942.97
2023-07-18T07:18:29.507Z,101931.03
2023-07-18T07:20:56.229Z,101943.47
2023-07-18T07:23:25.000Z,101944.72
2023-07-18T07:25:52.677Z,101937.09
2023-07-18T07:28:20.621Z,101933.59
2023-07-18T07:30:47.794Z,101931.97
2023-07-18T07:33:14.551Z,101934.91
2023-07-18T07:35:41.334Z,101928.28
2023-07-18T07:38:11.504Z,101932.00
2023-07-18T07:40:39.706Z,101924.38
2023-07-18T07:43:06.436Z,101922.94
2023-07-18T07:45:33.260Z,101922.34
2023-07-18T07:48:00.131Z,101920.50
2023-07-18T07:50:28.565Z,101928.78
2023-07-18T07:52:55.303Z,101928.41
2023-07-18T07:55:22.130Z,101927.78
2023-07-18T07:57:50.393Z,101928.00
2023-07-18T08:00:18.067Z,101924.72
2023-07-18T08:02:50.938Z,101930.50
2023-07-18T08:05:19.486Z,101920.78
2023-07-18T08:07:46.658Z,101922.06
2023-07-18T08:10:14.141Z,101922.47
2023-07-18T08:12:41.240Z,101922.69
2023-07-18T08:15:10.736Z,101916.47
2023-07-18T08:17:37.802Z,101904.25
2023-07-18T08:20:07.586Z,101905.50
2023-07-18T08:22:35.102Z,101900.34
2023-07-18T08:25:02.237Z,101904.88
2023-07-18T08:27:28.942Z,101901.56
2023-07-18T08:29:56.462Z,101908.19
2023-07-18T08:32:29.765Z,101903.00
2023-07-18T08:34:56.851Z,101896.97
2023-07-18T08:37:23.645Z,101904.84
2023-07-18T08:39:50.367Z,101905.66
2023-07-18T08:42:20.666Z,101899.03
2023-07-18T08:44:50.559Z,101901.72
2023-07-18T08:47:18.371Z,101898.38
2023-07-18T08:49:48.206Z,101900.66
2023-07-18T08:52:16.223Z,101899.41
2023-07-18T08:54:43.129Z,101903.94
2023-07-18T08:57:10.341Z,101893.34
2023-07-18T08:59:39.927Z,101880.88
2023-07-18T09:02:06.972Z,101879.22
2023-07-18T09:04:34.517Z,101881.28
2023-07-18T09:07:03.998Z,101876.25
2023-07-18T09:09:31.021Z,101869.44
2023-07-18T09:12:03.658Z,101872.28
2023-07-18T09:14:33.273Z,101867.31
2023-07-18T09:17:01.656Z,101873.69
2023-07-18T09:19:40.086Z,101871.38
2023-07-18T09:22:12.627Z,101866.19
2023-07-18T09:24:40.808Z,101864.50
2023-07-18T09:27:09.341Z,101853.88
2023-07-18T09:29:36.509Z,101849.50
2023-07-18T09:32:03.634Z,101857.78
2023-07-18T09:34:30.607Z,101858.97
2023-07-18T09:37:00.696Z,101860.38
2023-07-18T09:39:30.439Z,101853.28
2023-07-18T09:41:57.788Z,101855.09
2023-07-18T09:44:33.239Z,101852.53
2023-07-18T09:47:01.901Z,101852.72
2023-07-18T09:52:02.711Z,101848.69
2023-07-18T09:54:31.486Z,101852.38
2023-07-18T09:57:03.210Z,101852.53
2023-07-18T09:59:30.896Z,101845.19
2023-07-18T10:01:58.058Z,101839.72
2023-07-18T10:04:26.627Z,101837.19
2023-07-18T10:06:56.805Z,101829.88
2023-07-18T10:09:24.590Z,101826.25
2023-07-18T10:12:09.668Z,101831.59
2023-07-18T10:15:01.564Z,101833.41
2023-07-18T10:17:40.741Z,101832.28
2023-07-18T10:20:13.172Z,101824.09
2023-07-18T10:22:50.349Z,101820.69
2023-07-18T10:25:21.047Z,101817.91
2023-07-18T10:27:51.008Z,101818.88
2023-07-18T10:30:19.438Z,101814.47
2023-07-18T10:32:54.445Z,101812.72
2023-07-18T10:35:26.334Z,101812.00
2023-07-18T10:37:54.654Z,101800.50
2023-07-18T10:40:37.651Z,101796.63
2023-07-18T10:43:09.701Z,101803.25
2023-07-18T10:45:38.832Z,101808.81
2023-07-18T10:48:13.155Z,101791.66
2023-07-18T10:50:43.686Z,101791.22
2023-07-18T10:53:16.032Z,101782.41
2023-07-18T10:55:47.054Z,101771.47
2023-07-18T10:58:29.385Z,101779.47
2023-07-18T11:00:56.376Z,101775.25
2023-07-18T11:03:24.743Z,101772.88
2023-07-18T11:05:52.654Z,101771.59
2023-07-18T11:08:27.224Z,101766.53
2023-07-18T11:10:56.247Z,101753.59
2023-07-18T11:13:29.674Z,101753.16
2023-07-18T11:15:58.098Z,101749.94
2023-07-18T11:18:25.020Z,101756.31
2023-07-18T11:20:54.200Z,101755.94
2023-07-18T11:23:21.512Z,101746.88
2023-07-18T11:25:48.665Z,101740.19
2023-07-18T11:28:16.776Z,101740.31
2023-07-18T11:30:46.260Z,101740.44
2023-07-18T11:33:14.515Z,101743.47
2023-07-18T11:35:45.732Z,101744.19
2023-07-18T11:38:15.469Z,101746.97
2023-07-18T11:40:42.254Z,101741.94
2023-07-18T11:43:17.623Z,101750.16
2023-07-18T11:45:47.608Z,101738.59
2023-07-18T11:48:20.438Z,101736.81
2023-07-18T11:50:47.435Z,101720.88
2023-07-18T11:53:25.158Z,101723.97
2023-07-18T11:55:51.878Z,101710.50
2023-07-18T11:58:18.691Z,101725.22
2023-07-18T12:00:48.563Z,101733.69
2023-07-18T12:03:15.490Z,101728.84
2023-07-18T12:05:45.356Z,101719.41
2023-07-18T12:08:13.321Z,101721.16
2023-07-18T12:10:40.549Z,101716.66
2023-07-18T12:13:07.420Z,101721.59
2023-07-18T12:15:37.092Z,101722.78
2023-07-18T12:18:06.538Z,101714.13
2023-07-18T12:20:34.303Z,101701.75
2023-07-18T12:23:01.039Z,101697.16
2023-07-18T12:25:32.804Z,101692.56
2023-07-18T12:28:05.078Z,101684.75
2023-07-18T12:30:32.279Z,101685.63
2023-07-18T12:33:00.088Z,101688.69
2023-07-18T12:35:28.659Z,101684.16
2023-07-18T12:38:01.580Z,101700.50
2023-07-18T12:40:29.682Z,101700.88
2023-07-18T12:42:57.761Z,101697.63
2023-07-18T12:45:25.838Z,101697.41
2023-07-18T12:47:52.680Z,101704.00
2023-07-18T12:50:19.625Z,101701.59
2023-07-18T12:52:47.995Z,101698.41
2023-07-18T12:55:15.061Z,101696.22
2023-07-18T12:57:42.215Z,101695.75
2023-07-18T13:00:11.341Z,101689.25
2023-07-18T13:02:38.164Z,101695.28
2023-07-18T13:05:05.702Z,101692.88
2023-07-18T13:07:34.137Z,101695.66
2023-07-18T13:10:02.346Z,101694.13
2023-07-18T13:12:31.213Z,101687.34
2023-07-18T13:14:58.708Z,101679.72
2023-07-18T13:17:25.643Z,101670.97
2023-07-18T13:19:54.561Z,101670.41
2023-07-18T13:22:21.549Z,101656.03
2023-07-18T13:24:48.693Z,101659.09
2023-07-18T13:27:16.985Z,101659.44
2023-07-18T13:29:47.229Z,101661.03
2023-07-18T13:32:13.961Z,101651.94
2023-07-18T13:34:40.885Z,101647.63
2023-07-18T13:37:07.616Z,101637.59
2023-07-18T13:39:34.462Z,101641.72
2023-07-18T13:42:01.535Z,101636.56
2023-07-18T13:44:29.782Z,101626.28
2023-07-18T13:46:56.881Z,101623.88
2023-07-18T13:49:23.958Z,101615.94
2023-07-18T13:51:50.911Z,101613.53
2023-07-18T13:54:17.700Z,101612.78
2023-07-18T13:56:45.439Z,101609.56
2023-07-18T13:59:13.351Z,101609.88
2023-07-18T14:01:42.789Z,101604.75
2023-07-18T14:04:09.615Z,101597.16
2023-07-18T14:06:36.346Z,101604.81
2023-07-18T14:09:03.603Z,101593.69
2023-07-18T14:11:30.946Z,101580.13
2023-07-18T14:13:59.642Z,101577.13
2023-07-18T14:16:26.481Z,101579.34
2023-07-18T14:18:58.366Z,101573.41
2023-07-18T14:21:25.820Z,101568.28
2023-07-18T14:23:52.948Z,101561.53
2023-07-18T14:26:20.007Z,101565.59
2023-07-18T14:28:46.865Z,101560.75
2023-07-18T14:31:14.628Z,101558.59
2023-07-18T14:33:55.329Z,101552.91
2023-07-18T14:36:29.808Z,101556.47
2023-07-18T14:38:56.695Z,101564.31
2023-07-18T14:41:23.497Z,101557.59
2023-07-18T14:43:50.169Z,101554.38
2023-07-18T14:46:16.956Z,101549.22
2023-07-18T14:48:43.703Z,101546.03
2023-07-18T14:51:10.502Z,101546.03
2023-07-18T14:53:39.346Z,101535.16
2023-07-18T14:56:07.293Z,101537.34
2023-07-18T14:58:34.190Z,101534.09
2023-07-18T15:01:01.006Z,101538.47
2023-07-18T15:03:27.972Z,101534.41
2023-07-18T15:05:54.802Z,101535.22
2023-07-18T15:08:21.669Z,101529.78
2023-07-18T15:10:49.843Z,101537.44
2023-07-18T15:13:16.977Z,101540.16
2023-07-18T15:15:44.139Z,101541.78
2023-07-18T15:18:11.484Z,101533.88
2023-07-18T15:20:38.329Z,101537.38
2023-07-18T15:23:05.203Z,101537.34
2023-07-18T15:25:32.327Z,101529.72
2023-07-18T15:28:00.878Z,101523.72
2023-07-18T15:30:28.634Z,101527.25
2023-07-18T15:32:55.405Z,101524.28
2023-07-18T15:35:23.001Z,101526.72
2023-07-18T15:37:49.799Z,101531.91
2023-07-18T15:40:16.516Z,101533.53
2023-07-18T15:42:43.180Z,101531.38
2023-07-18T15:45:11.882Z,101529.22
2023-07-18T15:47:39.474Z,101527.06
2023-07-18T15:50:07.617Z,101522.69
2023-07-18T15:52:34.339Z,101523.28
2023-07-18T15:55:01.628Z,101517.00
2023-07-18T15:57:29.682Z,101521.06
2023-07-18T15:59:56.370Z,101509.91
2023-07-18T16:02:24.742Z,101501.44
2023-07-18T16:04:51.545Z,101496.78
2023-07-18T16:07:18.424Z,101501.66
2023-07-18T16:09:49.593Z,101492.44
2023-07-18T16:12:16.377Z,101491.59
2023-07-18T16:14:43.419Z,101493.50
2023-07-18T16:17:11.207Z,101494.84
2023-07-18T16:19:39.765Z,101487.78
2023-07-18T16:22:06.779Z,101479.84
2023-07-18T16:24:33.566Z,101478.31
2023-07-18T16:27:02.731Z,101478.03
2023-07-18T16:29:29.458Z,101475.88
2023-07-18T16:31:59.266Z,101476.44
2023-07-18T16:34:26.004Z,101468.81
2023-07-18T16:36:56.393Z,101464.22
2023-07-18T16:39:23.075Z,101455.25
2023-07-18T16:41:49.842Z,101456.88
2023-07-18T16:44:18.646Z,101455.00
2023-07-18T16:46:47.324Z,101456.88
2023-07-18T16:49:14.142Z,101453.34
2023-07-18T16:51:41.060Z,101454.16
2023-07-18T16:54:09.238Z,101455.25
2023-07-18T16:56:36.859Z,101451.19
2023-07-18T16:59:03.663Z,101445.50
2023-07-18T17:01:32.516Z,101447.41
2023-07-18T17:04:00.807Z,101447.16
2023-07-18T17:06:27.681Z,101437.09
2023-07-18T17:08:54.729Z,101427.56
2023-07-18T17:11:23.012Z,101444.66
2023-07-18T17:13:52.448Z,101426.97
2023-07-18T17:16:20.226Z,101431.84
2023-07-18T17:18:47.663Z,101430.13
2023-07-18T17:21:14.450Z,101426.84
2023-07-18T17:23:41.185Z,101416.78
2023-07-18T17:26:10.205Z,101415.72
2023-07-18T17:28:38.283Z,101411.13
2023-07-18T17:31:05.203Z,101409.47
2023-07-18T17:33:31.980Z,101409.75
2023-07-18T17:35:58.686Z,101414.38
2023-07-18T17:38:25.665Z,101413.81
2023-07-18T17:40:52.635Z,101412.16
2023-07-18T17:43:19.388Z,101406.97
2023-07-18T17:45:47.695Z,101399.09
2023-07-18T17:48:14.652Z,101400.19
2023-07-18T17:50:41.488Z,101402.91
2023-07-18T17:53:08.211Z,101398.81
2023-07-18T17:55:35.074Z,101396.09
2023-07-18T17:58:01.895Z,101401.19
2023-07-18T18:00:30.226Z,101394.41
2023-07-18T18:02:58.689Z,101398.44
2023-07-18T18:05:36.342Z,101390.56
2023-07-18T18:08:06.323Z,101395.16
2023-07-18T18:10:33.171Z,101397.34
2023-07-18T18:12:59.930Z,101391.59
2023-07-18T18:15:28.143Z,101396.50
2023-07-18T18:17:55.067Z,101387.78
2023-07-18T18:20:23.296Z,101393.47
2023-07-18T18:22:50.198Z,101387.47
2023-07-18T18:25:17.388Z,101386.91
2023-07-18T18:27:45.039Z,101386.34
2023-07-18T18:30:13.042Z,101385.78
2023-07-18T18:32:39.960Z,101391.75
2023-07-18T18:35:09.822Z,101394.16
2023-07-18T18:37:39.432Z,101390.84
2023-07-18T18:40:07.171Z,101379.47
2023-07-18T18:42:34.804Z,101387.03
2023-07-18T18:45:01.847Z,101382.69
2023-07-18T18:47:28.607Z,101383.22
2023-07-18T18:49:57.816Z,101384.28
2023-07-18T18:52:26.084Z,101383.97
2023-07-18T18:55:08.693Z,101380.13
2023-07-18T18:57:40.046Z,101386.63
2023-07-18T19:00:09.078Z,101386.56
2023-07-18T19:02:36.428Z,101390.09
2023-07-18T19:05:05.623Z,101388.44
2023-07-18T19:07:34.539Z,101392.25
2023-07-18T19:10:03.930Z,101390.81
2023-07-18T19:12:30.753Z,101393.72
2023-07-18T19:14:58.394Z,101398.78
2023-07-18T19:17:25.884Z,101392.91
2023-07-18T19:19:53.007Z,101388.44
2023-07-18T19:22:20.595Z,101387.56
2023-07-18T19:24:51.038Z,101393.75
2023-07-18T19:27:19.697Z,101395.59
2023-07-18T19:29:46.653Z,101399.03
2023-07-18T19:32:13.426Z,101397.88
2023-07-18T19:34:42.676Z,101406.19
2023-07-18T19:37:09.405Z,101405.03
2023-07-18T19:39:37.886Z,101399.31
2023-07-18T19:42:05.477Z,101408.97
2023-07-18T19:44:33.876Z,101410.50
2023-07-18T19:47:02.032Z,101404.44
2023-07-18T19:49:32.033Z,101400.25
2023-07-18T19:51:59.150Z,101406.16
2023-07-18T19:54:26.432Z,101404.44
2023-07-18T19:56:54.341Z,101413.38
2023-07-18T19:59:21.920Z,101413.06
2023-07-18T20:01:52.236Z,101416.28
2023-07-18T20:04:19.379Z,101414.31
2023-07-18T20:06:46.141Z,101414.56
2023-07-18T20:09:12.893Z,101413.38
2023-07-18T20:11:39.794Z,101409.78
2023-07-18T20:14:06.500Z,101410.00
2023-07-18T20:16:33.300Z,101416.97
2023-07-18T20:19:03.106Z,101413.91
2023-07-18T20:21:30.414Z,101427.38
2023-07-18T20:23:58.243Z,101426.72
2023-07-18T20:26:25.587Z,101422.03
2023-07-18T20:28:53.725Z,101420.63
2023-07-18T20:31:20.883Z,101417.34
2023-07-18T20:33:48.479Z,101416.53
2023-07-18T20:36:16.760Z,101410.53
2023-07-18T20:38:47.257Z,101409.72
2023-07-18T20:41:14.258Z,101393.25
2023-07-18T20:43:41.794Z,101386.50
2023-07-18T20:46:12.385Z,101391.09
2023-07-18T20:48:39.322Z,101401.09
2023-07-18T20:51:07.279Z,101388.91
2023-07-18T20:53:35.717Z,101387.25
2023-07-18T20:56:02.763Z,101384.53
2023-07-18T20:58:29.762Z,101385.38
2023-07-18T21:00:56.485Z,101371.50
2023-07-18T21:03:25.130Z,101377.19
2023-07-18T21:05:52.388Z,101381.75
2023-07-18T21:08:19.566Z,101390.13
2023-07-18T21:10:49.246Z,101396.81
2023-07-18T21:13:16.250Z,101400.34
2023-07-18T21:15:43.234Z,101386.59
2023-07-18T21:18:10.377Z,101395.75
2023-07-18T21:20:38.463Z,101392.22
2023-07-18T21:23:05.391Z,101386.25
2023-07-18T21:25:32.677Z,101384.34
2023-07-18T21:28:00.734Z,101386.75
2023-07-18T21:30:27.888Z,101391.31
2023-07-18T21:32:54.975Z,101385.34
2023-07-18T21:35:25.061Z,101387.47
2023-07-18T21:37:52.019Z,101383.69
2023-07-18T21:40:19.187Z,101381.81
2023-07-18T21:42:49.455Z,101383.38
2023-07-18T21:45:17.930Z,101364.91
2023-07-18T21:47:45.788Z,101374.06
2023-07-18T21:50:12.764Z,101368.34
2023-07-18T21:52:39.641Z,101366.13
2023-07-18T21:55:07.634Z,101366.84
2023-07-18T21:57:34.305Z,101365.72
2023-07-18T22:00:01.163Z,101360.78
2023-07-18T22:02:37.008Z,101372.06
2023-07-18T22:05:04.551Z,101362.53
2023-07-18T22:07:31.788Z,101354.88
2023-07-18T22:09:59.382Z,101355.63
2023-07-18T22:12:26.104Z,101349.88
2023-07-18T22:14:57.128Z,101357.41
2023-07-18T22:17:23.872Z,101354.59
2023-07-18T22:19:51.895Z,101349.69
2023-07-18T22:22:18.731Z,101346.63
2023-07-18T22:24:45.489Z,101360.63
2023-07-18T22:27:12.208Z,101363.56
2023-07-18T22:29:39.156Z,101365.69
2023-07-18T22:32:07.355Z,101369.19
2023-07-18T22:34:34.900Z,101363.81
2023-07-18T22:37:03.225Z,101365.44
2023-07-18T22:39:36.487Z,101363.56
2023-07-18T22:42:15.339Z,101356.50
2023-07-18T22:44:42.647Z,101353.00
2023-07-18T22:47:10.162Z,101354.03
2023-07-18T22:49:37.212Z,101352.16
2023-07-18T22:52:06.719Z,101350.53
2023-07-18T22:54:34.695Z,101347.50
2023-07-18T22:57:01.836Z,101353.34
2023-07-18T22:59:28.662Z,101343.28
2023-07-18T23:01:55.402Z,101351.03
2023-07-18T23:04:23.704Z,101342.00
2023-07-18T23:06:50.372Z,101340.84
2023-07-18T23:09:19.695Z,101343.69
2023-07-18T23:11:46.808Z,101346.03
2023-07-18T23:14:13.706Z,101339.47
2023-07-18T23:16:41.773Z,101335.34
2023-07-18T23:19:08.526Z,101334.19
2023-07-18T23:21:35.628Z,101338.41
2023-07-18T23:24:02.710Z,101342.84
2023-07-18T23:26:30.913Z,101335.22
2023-07-18T23:28:58.042Z,101333.22
2023-07-18T23:31:24.998Z,101332.28
2023-07-18T23:33:51.952Z,101333.81
2023-07-18T23:36:18.669Z,101326.66
2023-07-18T23:38:46.525Z,101330.06
2023-07-18T23:41:13.404Z,101329.13
2023-07-18T23:43:41.444Z,101325.25
2023-07-18T23:46:08.374Z,101323.25
2023-07-18T23:48:35.998Z,101323.97
2023-07-18T23:51:03.221Z,101321.72
2023-07-18T23:53:29.901Z,101327.56
2023-07-18T23:55:56.792Z,101327.81
2023-07-18T23:58:23.732Z,101331.78
